createdAt,value
2018-12-01T06:03:27.341Z,5.70
2018-12-01T06:08:32.554Z,5.30
2018-12-01T06:13:38.633Z,5.13
2018-12-01T06:18:47.145Z,6.30
2018-12-01T06:23:57.500Z,5.13
2018-12-01T06:29:04.288Z,5.37
2018-12-01T06:34:13.611Z,5.60
2018-12-01T06:39:17.713Z,5.70
2018-12-01T06:44:23.141Z,5.70
2018-12-01T06:49:46.853Z,5.83
2018-12-01T06:55:14.639Z,5.67
2018-12-01T07:00:21.221Z,5.80
2018-12-01T07:05:28.487Z,6.47
2018-12-01T07:10:37.023Z,7.07
2018-12-01T07:15:42.011Z,6.53
2018-12-01T07:20:49.063Z,5.60
2018-12-01T07:25:54.321Z,6.50
2018-12-01T07:30:58.684Z,5.80
2018-12-01T07:36:04.125Z,6.87
2018-12-01T07:41:07.472Z,5.93
2018-12-01T07:46:13.721Z,6.10
2018-12-01T07:56:29.708Z,5.77
2018-12-01T08:01:34.454Z,6.30
2018-12-01T08:06:39.264Z,5.87
2018-12-01T08:11:52.103Z,5.33
2018-12-01T08:16:59.937Z,5.23
2018-12-01T08:22:04.828Z,6.07
2018-12-01T08:32:30.025Z,5.60
2018-12-01T08:37:42.134Z,5.00
2018-12-01T08:42:48.858Z,5.27
2018-12-01T08:47:54.630Z,6.00
2018-12-01T08:52:59.166Z,5.67
2018-12-01T08:58:05.748Z,5.93
2018-12-01T09:03:09.084Z,5.53
2018-12-01T09:08:13.176Z,5.93
2018-12-01T09:13:16.512Z,5.23
2018-12-01T09:18:20.603Z,5.00
2018-12-01T09:23:23.924Z,5.27
2018-12-01T09:28:27.261Z,4.77
2018-12-01T09:33:31.020Z,4.40
2018-12-01T09:38:34.954Z,4.67
2018-12-01T09:43:38.288Z,4.63
2018-12-01T09:48:41.613Z,4.33
2018-12-01T09:53:44.957Z,3.17
2018-12-01T09:58:49.062Z,3.50
2018-12-01T10:03:52.393Z,3.97
2018-12-01T10:08:55.716Z,3.80
2018-12-01T10:13:59.813Z,3.00
2018-12-01T10:19:03.167Z,2.87
2018-12-01T10:24:06.535Z,2.83
2018-12-01T10:29:09.894Z,3.13
2018-12-01T10:34:23.757Z,3.30
2018-12-01T10:39:27.301Z,2.90
2018-12-01T10:44:30.719Z,2.90
2018-12-01T10:49:35.899Z,2.50
2018-12-01T10:54:47.839Z,2.37
2018-12-01T10:59:51.573Z,2.00
2018-12-01T11:04:55.206Z,1.70
2018-12-01T11:09:59.177Z,1.93
2018-12-01T11:15:05.122Z,2.00
2018-12-01T11:20:08.479Z,2.03
2018-12-01T11:25:14.017Z,1.80
2018-12-01T11:30:21.002Z,1.63
2018-12-01T11:35:24.364Z,1.80
2018-12-01T11:40:31.790Z,1.70
2018-12-01T11:45:35.192Z,2.00
2018-12-01T11:50:38.537Z,1.90
2018-12-01T11:55:41.863Z,1.40
2018-12-01T12:00:45.229Z,1.73
2018-12-01T12:05:48.761Z,1.40
2018-12-01T12:10:52.117Z,1.33
2018-12-01T12:15:56.239Z,1.30
2018-12-01T12:21:00.358Z,1.57
2018-12-01T12:26:03.732Z,1.43
2018-12-01T12:31:07.079Z,1.50
2018-12-01T12:36:10.657Z,1.40
2018-12-01T12:41:14.032Z,1.47
2018-12-01T12:46:18.137Z,1.50
2018-12-01T12:51:21.485Z,1.90
2018-12-01T12:56:24.836Z,1.60
2018-12-01T13:01:28.183Z,1.60
2018-12-01T13:06:31.529Z,2.03
2018-12-01T13:11:34.889Z,2.00
2018-12-01T13:16:38.240Z,1.93
2018-12-01T13:21:49.796Z,1.93
2018-12-01T13:26:53.168Z,2.10
2018-12-01T13:31:56.512Z,2.30
2018-12-01T13:36:59.842Z,2.10
2018-12-01T13:42:03.173Z,2.13
2018-12-01T13:47:07.277Z,2.07
2018-12-01T13:52:10.637Z,1.80
2018-12-01T13:57:13.988Z,1.90
2018-12-01T14:02:17.343Z,2.17
2018-12-01T14:07:21.650Z,1.73
2018-12-01T14:12:31.194Z,2.07
2018-12-01T14:17:34.546Z,1.90
2018-12-01T14:22:37.895Z,8.30
2018-12-01T14:27:41.250Z,2.60
2018-12-01T14:32:45.381Z,2.87
2018-12-01T14:37:49.508Z,1.90
2018-12-01T14:42:55.857Z,2.07
2018-12-01T14:47:59.231Z,2.60
2018-12-01T14:53:09.134Z,1.73
2018-12-01T14:58:15.295Z,2.00
2018-12-01T15:03:36.090Z,1.40
2018-12-01T15:08:40.228Z,1.60
2018-12-01T15:13:59.820Z,1.50
2018-12-01T15:19:16.514Z,1.70
2018-12-01T15:24:25.306Z,1.30
2018-12-01T15:29:33.452Z,1.87
2018-12-01T15:34:37.456Z,3.07
2018-12-01T15:39:40.921Z,2.10
2018-12-01T15:44:45.064Z,4.67
2018-12-01T15:49:48.390Z,3.10
2018-12-01T15:54:51.745Z,1.90
2018-12-01T15:59:55.113Z,1.63
2018-12-01T16:04:58.458Z,2.20
2018-12-01T16:10:02.400Z,1.70
2018-12-01T16:15:05.811Z,2.47
2018-12-01T16:20:09.156Z,2.53
2018-12-01T16:25:12.516Z,2.77
2018-12-01T16:30:15.878Z,2.90
2018-12-01T16:35:19.225Z,2.67
2018-12-01T16:40:22.572Z,2.50
2018-12-01T16:45:26.669Z,1.70
2018-12-01T16:50:30.037Z,1.93
2018-12-01T16:55:33.384Z,3.20
2018-12-01T17:00:38.657Z,2.97
2018-12-01T17:05:41.977Z,2.63
2018-12-01T17:10:45.334Z,4.20
2018-12-01T17:15:48.700Z,2.90
2018-12-01T17:20:52.026Z,2.87
2018-12-01T17:26:09.208Z,4.37
2018-12-01T17:31:18.342Z,5.23
2018-12-01T17:36:21.849Z,4.87
2018-12-01T17:41:25.208Z,4.60
2018-12-01T17:46:28.544Z,4.67
2018-12-01T17:51:31.869Z,5.60
2018-12-01T17:56:35.973Z,4.60
2018-12-01T18:01:39.352Z,5.00
2018-12-01T18:06:42.704Z,5.80
2018-12-01T18:11:46.057Z,5.33
2018-12-01T18:16:49.424Z,5.60
2018-12-01T18:21:56.633Z,5.80
2018-12-01T18:27:00.732Z,5.00
2018-12-01T18:32:04.098Z,5.30
2018-12-01T18:37:08.213Z,7.27
2018-12-01T18:42:12.332Z,6.60
2018-12-01T18:47:16.452Z,6.63
2018-12-01T18:52:19.799Z,7.07
2018-12-01T18:57:23.152Z,5.47
2018-12-01T19:02:26.517Z,5.93
2018-12-01T19:07:29.845Z,5.93
2018-12-01T19:12:33.200Z,7.53
2018-12-01T19:17:50.323Z,7.27
2018-12-01T19:23:00.856Z,6.90
2018-12-01T19:28:04.251Z,7.43
2018-12-01T19:33:08.393Z,5.37
2018-12-01T19:38:18.943Z,7.67
2018-12-01T19:43:29.976Z,6.43
2018-12-01T19:48:33.312Z,7.07
2018-12-01T19:53:36.644Z,6.03
2018-12-01T19:58:39.989Z,7.70
2018-12-01T20:03:44.106Z,6.63
2018-12-01T20:08:51.933Z,6.77
2018-12-01T20:13:56.025Z,5.93
2018-12-01T20:18:59.481Z,7.10
2018-12-01T20:24:04.741Z,5.83
2018-12-01T20:29:08.836Z,5.10
2018-12-01T20:34:12.205Z,5.00
2018-12-01T20:39:15.569Z,4.40
2018-12-01T20:44:18.888Z,4.00
2018-12-01T20:49:22.986Z,4.40
2018-12-01T20:54:26.317Z,4.20
2018-12-01T20:59:29.657Z,4.40
2018-12-01T21:04:33.777Z,4.70
2018-12-01T21:09:37.877Z,3.83
2018-12-01T21:14:41.205Z,4.07
2018-12-01T21:19:45.330Z,4.97
2018-12-01T21:24:51.877Z,4.50
2018-12-01T21:30:03.910Z,3.50
2018-12-01T21:35:07.298Z,4.97
2018-12-01T21:40:10.683Z,4.57
2018-12-01T21:45:14.020Z,3.80
2018-12-01T21:50:24.993Z,4.40
2018-12-01T21:55:28.361Z,4.13
2018-12-01T22:00:31.683Z,4.77
2018-12-01T22:05:35.773Z,4.40
2018-12-01T22:10:39.119Z,4.63
2018-12-01T22:15:42.485Z,3.63
2018-12-01T22:20:45.845Z,4.73
2018-12-01T22:25:49.945Z,4.97
2018-12-01T22:30:53.287Z,4.53
2018-12-01T22:35:56.623Z,4.27
2018-12-01T22:40:59.956Z,3.70
2018-12-01T22:46:03.287Z,3.87
2018-12-01T22:51:06.633Z,4.37
2018-12-01T22:56:10.738Z,3.57
